Terminal Aerodrome Forecast
Issued by NWS Wilmington, NC

Home | Current Version | Previous Version | Text Only | Print | Product List | Glossary On
Versions: 1 2 3 4 5 6 7 8 9 10 11 12 13 14 15 16 17 18 19 20 21 22
597
FTUS42 KILM 061132
TAFLBT
TAF
KLBT 061132Z 0612/0712 04003KT P6SM FEW250
     FM061400 05006KT P6SM SCT120 SCT250
     FM062100 03008KT P6SM VCSH SCT035 BKN050
     FM070400 01010G18KT 6SM -RA SCT025 OVC050=

USA.gov is the U.S. government's official web portal to all federal, state and local government web resources and services.